sensor_id;sensor_type;location;lat;lon;timestamp;pressure;altitude;pressure_sealevel;temperature;humidity
11692;BME280;33659;42.672;23.354;2023-02-22T00:00:53;94312.19;;;10.64;42.18
11692;BME280;33659;42.672;23.354;2023-02-22T00:03:26;94341.94;;;11.00;41.74
11692;BME280;33659;42.672;23.354;2023-02-22T00:05:54;94332.81;;;10.94;41.80
11692;BME280;33659;42.672;23.354;2023-02-22T00:08:24;94334.81;;;10.72;42.13
11692;BME280;33659;42.672;23.354;2023-02-22T00:10:56;94330.03;;;10.50;42.93
11692;BME280;33659;42.672;23.354;2023-02-22T00:13:23;94336.31;;;10.37;43.73
11692;BME280;33659;42.672;23.354;2023-02-22T00:15:49;94335.00;;;10.18;44.17
11692;BME280;33659;42.672;23.354;2023-02-22T00:18:17;94332.16;;;10.11;44.47
11692;BME280;33659;42.672;23.354;2023-02-22T00:20:44;94343.22;;;10.08;44.04
11692;BME280;33659;42.672;23.354;2023-02-22T00:23:14;94339.75;;;10.16;44.08
11692;BME280;33659;42.672;23.354;2023-02-22T00:25:43;94342.97;;;10.34;44.00
11692;BME280;33659;42.672;23.354;2023-02-22T00:28:12;94310.69;;;10.39;43.22
11692;BME280;33659;42.672;23.354;2023-02-22T00:30:39;94332.53;;;10.71;43.06
11692;BME280;33659;42.672;23.354;2023-02-22T00:33:08;94329.25;;;10.86;42.64
11692;BME280;33659;42.672;23.354;2023-02-22T00:35:35;94327.84;;;10.89;42.65
11692;BME280;33659;42.672;23.354;2023-02-22T00:38:04;94323.03;;;10.78;42.77
11692;BME280;33659;42.672;23.354;2023-02-22T00:40:33;94322.63;;;10.64;43.08
11692;BME280;33659;42.672;23.354;2023-02-22T00:43:01;94319.81;;;10.33;44.00
11692;BME280;33659;42.672;23.354;2023-02-22T00:45:31;94321.28;;;10.21;43.92
11692;BME280;33659;42.672;23.354;2023-02-22T00:47:59;94318.25;;;10.19;43.89
11692;BME280;33659;42.672;23.354;2023-02-22T00:50:28;94311.94;;;10.08;43.85
11692;BME280;33659;42.672;23.354;2023-02-22T00:52:56;94309.75;;;10.10;44.18
11692;BME280;33659;42.672;23.354;2023-02-22T00:55:25;94313.03;;;10.19;44.09
11692;BME280;33659;42.672;23.354;2023-02-22T00:57:52;94308.94;;;10.30;43.91
11692;BME280;33659;42.672;23.354;2023-02-22T01:00:22;94299.47;;;10.50;43.51
11692;BME280;33659;42.672;23.354;2023-02-22T01:02:52;94296.81;;;10.75;43.05
11692;BME280;33659;42.672;23.354;2023-02-22T01:05:22;94303.09;;;10.98;42.84
11692;BME280;33659;42.672;23.354;2023-02-22T01:07:49;94284.66;;;11.07;42.38
11692;BME280;33659;42.672;23.354;2023-02-22T01:10:17;94290.34;;;11.37;41.55
11692;BME280;33659;42.672;23.354;2023-02-22T01:12:44;94295.34;;;11.58;41.13
11692;BME280;33659;42.672;23.354;2023-02-22T01:15:12;94292.69;;;11.70;41.16
11692;BME280;33659;42.672;23.354;2023-02-22T01:17:39;94291.88;;;11.82;40.97
11692;BME280;33659;42.672;23.354;2023-02-22T01:20:10;94279.66;;;11.86;40.71
11692;BME280;33659;42.672;23.354;2023-02-22T01:22:38;94289.47;;;12.05;40.24
11692;BME280;33659;42.672;23.354;2023-02-22T01:25:05;94290.03;;;12.14;40.07
11692;BME280;33659;42.672;23.354;2023-02-22T01:27:32;94285.38;;;12.23;39.71
11692;BME280;33659;42.672;23.354;2023-02-22T01:29:59;94286.34;;;12.31;39.78
11692;BME280;33659;42.672;23.354;2023-02-22T01:32:25;94282.34;;;12.37;39.66
11692;BME280;33659;42.672;23.354;2023-02-22T01:34:52;94279.13;;;12.43;39.55
11692;BME280;33659;42.672;23.354;2023-02-22T01:37:20;94283.03;;;12.50;39.48
11692;BME280;33659;42.672;23.354;2023-02-22T01:39:47;94284.44;;;12.47;39.76
11692;BME280;33659;42.672;23.354;2023-02-22T01:42:13;94285.78;;;12.41;40.33
11692;BME280;33659;42.672;23.354;2023-02-22T01:44:40;94280.81;;;12.36;40.42
11692;BME280;33659;42.672;23.354;2023-02-22T01:47:07;94284.63;;;12.38;40.36
11692;BME280;33659;42.672;23.354;2023-02-22T01:49:37;94276.72;;;12.19;40.64
11692;BME280;33659;42.672;23.354;2023-02-22T01:52:08;94289.94;;;12.10;40.96
11692;BME280;33659;42.672;23.354;2023-02-22T01:54:40;94292.09;;;12.05;41.02
11692;BME280;33659;42.672;23.354;2023-02-22T01:57:17;94269.59;;;11.88;41.11
11692;BME280;33659;42.672;23.354;2023-02-22T01:59:49;94282.19;;;11.82;41.36
11692;BME280;33659;42.672;23.354;2023-02-22T02:02:17;94282.84;;;11.79;41.73
11692;BME280;33659;42.672;23.354;2023-02-22T02:04:46;94283.84;;;11.75;41.73
11692;BME280;33659;42.672;23.354;2023-02-22T02:07:16;94288.13;;;11.67;42.16
11692;BME280;33659;42.672;23.354;2023-02-22T02:09:51;94293.59;;;11.62;42.36
11692;BME280;33659;42.672;23.354;2023-02-22T02:12:20;94287.69;;;11.65;42.07
11692;BME280;33659;42.672;23.354;2023-02-22T02:14:48;94288.53;;;11.69;41.87
11692;BME280;33659;42.672;23.354;2023-02-22T02:17:18;94286.03;;;11.73;42.17
11692;BME280;33659;42.672;23.354;2023-02-22T02:19:53;94292.69;;;11.70;42.12
11692;BME280;33659;42.672;23.354;2023-02-22T02:22:40;94294.13;;;11.68;42.21
11692;BME280;33659;42.672;23.354;2023-02-22T02:25:23;94294.00;;;11.64;42.21
11692;BME280;33659;42.672;23.354;2023-02-22T02:28:21;94295.34;;;11.58;42.46
11692;BME280;33659;42.672;23.354;2023-02-22T02:31:18;94299.06;;;11.57;42.15
11692;BME280;33659;42.672;23.354;2023-02-22T02:33:51;94298.53;;;11.51;42.42
11692;BME280;33659;42.672;23.354;2023-02-22T02:36:29;94305.22;;;11.49;42.42
11692;BME280;33659;42.672;23.354;2023-02-22T02:39:02;94304.44;;;11.48;42.38
11692;BME280;33659;42.672;23.354;2023-02-22T02:41:34;94302.38;;;11.54;42.32
11692;BME280;33659;42.672;23.354;2023-02-22T02:44:05;94307.91;;;11.52;42.17
11692;BME280;33659;42.672;23.354;2023-02-22T02:46:46;94302.38;;;11.54;41.87
11692;BME280;33659;42.672;23.354;2023-02-22T02:49:21;94313.13;;;11.52;42.12
11692;BME280;33659;42.672;23.354;2023-02-22T02:51:52;94313.25;;;11.56;41.94
11692;BME280;33659;42.672;23.354;2023-02-22T02:54:21;94314.75;;;11.57;41.64
11692;BME280;33659;42.672;23.354;2023-02-22T02:56:49;94308.44;;;11.58;41.90
11692;BME280;33659;42.672;23.354;2023-02-22T02:59:27;94314.75;;;11.57;41.86
11692;BME280;33659;42.672;23.354;2023-02-22T03:02:05;94315.34;;;11.50;41.72
11692;BME280;33659;42.672;23.354;2023-02-22T03:04:50;94299.78;;;11.42;41.69
11692;BME280;33659;42.672;23.354;2023-02-22T03:07:42;94310.69;;;11.44;41.72
11692;BME280;33659;42.672;23.354;2023-02-22T03:10:22;94284.44;;;11.12;42.29
11692;BME280;33659;42.672;23.354;2023-02-22T03:12:58;94318.50;;;11.16;42.46
11692;BME280;33659;42.672;23.354;2023-02-22T03:15:34;94318.63;;;11.07;43.02
11692;BME280;33659;42.672;23.354;2023-02-22T03:18:06;94312.59;;;10.91;43.50
11692;BME280;33659;42.672;23.354;2023-02-22T03:20:42;94313.50;;;10.70;43.93
11692;BME280;33659;42.672;23.354;2023-02-22T03:23:17;94311.44;;;10.64;44.08
11692;BME280;33659;42.672;23.354;2023-02-22T03:25:51;94309.91;;;10.50;44.56
11692;BME280;33659;42.672;23.354;2023-02-22T03:28:20;94310.75;;;10.18;44.78
11692;BME280;33659;42.672;23.354;2023-02-22T03:30:55;94310.59;;;9.90;45.41
11692;BME280;33659;42.672;23.354;2023-02-22T03:33:26;94296.53;;;9.70;45.70
11692;BME280;33659;42.672;23.354;2023-02-22T03:36:03;94310.56;;;9.77;45.55
11692;BME280;33659;42.672;23.354;2023-02-22T03:38:32;94309.28;;;9.84;45.62
11692;BME280;33659;42.672;23.354;2023-02-22T03:41:01;94311.28;;;9.99;45.23
11692;BME280;33659;42.672;23.354;2023-02-22T03:43:31;94294.94;;;9.90;45.35
11692;BME280;33659;42.672;23.354;2023-02-22T03:46:00;94312.66;;;9.96;45.24
11692;BME280;33659;42.672;23.354;2023-02-22T03:48:34;94313.88;;;9.99;45.41
11692;BME280;33659;42.672;23.354;2023-02-22T03:51:03;94312.34;;;10.10;45.34
11692;BME280;33659;42.672;23.354;2023-02-22T03:53:32;94306.28;;;10.18;45.24
11692;BME280;33659;42.672;23.354;2023-02-22T03:56:02;94308.50;;;10.28;45.06
11692;BME280;33659;42.672;23.354;2023-02-22T03:58:33;94310.00;;;10.29;44.59
11692;BME280;33659;42.672;23.354;2023-02-22T04:01:02;94305.66;;;10.34;44.69
11692;BME280;33659;42.672;23.354;2023-02-22T04:03:29;94296.75;;;10.35;44.63
11692;BME280;33659;42.672;23.354;2023-02-22T04:05:55;94301.41;;;10.53;44.71
11692;BME280;33659;42.672;23.354;2023-02-22T04:08:23;94312.81;;;10.61;44.62
11692;BME280;33659;42.672;23.354;2023-02-22T04:10:50;94301.75;;;10.64;44.64
11692;BME280;33659;42.672;23.354;2023-02-22T04:13:17;94307.06;;;10.68;45.09
11692;BME280;33659;42.672;23.354;2023-02-22T04:15:43;94308.03;;;10.75;44.47
11692;BME280;33659;42.672;23.354;2023-02-22T04:18:10;94302.50;;;10.77;44.62
11692;BME280;33659;42.672;23.354;2023-02-22T04:20:38;94302.03;;;10.75;44.04
11692;BME280;33659;42.672;23.354;2023-02-22T04:23:05;94309.78;;;10.71;44.60
11692;BME280;33659;42.672;23.354;2023-02-22T04:25:33;94312.28;;;10.68;44.44
11692;BME280;33659;42.672;23.354;2023-02-22T04:27:59;94308.47;;;10.65;44.76
11692;BME280;33659;42.672;23.354;2023-02-22T04:30:26;94316.53;;;10.60;45.53
11692;BME280;33659;42.672;23.354;2023-02-22T04:32:54;94316.31;;;10.53;45.59
11692;BME280;33659;42.672;23.354;2023-02-22T04:35:21;94315.22;;;10.42;45.35
11692;BME280;33659;42.672;23.354;2023-02-22T04:37:48;94310.47;;;10.32;45.72
11692;BME280;33659;42.672;23.354;2023-02-22T04:40:15;94319.06;;;10.32;45.70
11692;BME280;33659;42.672;23.354;2023-02-22T04:42:44;94323.38;;;10.28;45.84
11692;BME280;33659;42.672;23.354;2023-02-22T04:45:10;94316.06;;;10.21;46.04
11692;BME280;33659;42.672;23.354;2023-02-22T04:47:37;94316.81;;;10.22;46.51
11692;BME280;33659;42.672;23.354;2023-02-22T04:50:06;94316.72;;;10.18;46.40
11692;BME280;33659;42.672;23.354;2023-02-22T04:52:33;94312.28;;;10.19;46.28
11692;BME280;33659;42.672;23.354;2023-02-22T04:54:59;94308.91;;;10.18;46.04
11692;BME280;33659;42.672;23.354;2023-02-22T04:57:26;94306.28;;;10.18;46.10
11692;BME280;33659;42.672;23.354;2023-02-22T04:59:54;94321.75;;;10.23;45.96
11692;BME280;33659;42.672;23.354;2023-02-22T05:02:21;94317.28;;;10.24;45.72
11692;BME280;33659;42.672;23.354;2023-02-22T05:04:48;94318.03;;;10.12;46.40
11692;BME280;33659;42.672;23.354;2023-02-22T05:07:15;94315.63;;;10.07;46.31
11692;BME280;33659;42.672;23.354;2023-02-22T05:09:42;94316.72;;;10.06;46.51
11692;BME280;33659;42.672;23.354;2023-02-22T05:12:09;94329.09;;;10.09;46.48
11692;BME280;33659;42.672;23.354;2023-02-22T05:14:36;94328.78;;;10.11;46.39
11692;BME280;33659;42.672;23.354;2023-02-22T05:17:04;94326.81;;;10.08;45.76
11692;BME280;33659;42.672;23.354;2023-02-22T05:19:30;94325.38;;;9.98;46.42
11692;BME280;33659;42.672;23.354;2023-02-22T05:21:57;94324.53;;;9.94;46.77
11692;BME280;33659;42.672;23.354;2023-02-22T05:24:24;94332.34;;;9.94;46.61
11692;BME280;33659;42.672;23.354;2023-02-22T05:26:51;94329.06;;;9.97;46.26
11692;BME280;33659;42.672;23.354;2023-02-22T05:29:18;94339.09;;;9.95;46.50
11692;BME280;33659;42.672;23.354;2023-02-22T05:31:45;94339.41;;;9.93;46.63
11692;BME280;33659;42.672;23.354;2023-02-22T05:34:14;94342.13;;;9.97;46.93
11692;BME280;33659;42.672;23.354;2023-02-22T05:36:41;94353.31;;;9.97;47.15
11692;BME280;33659;42.672;23.354;2023-02-22T05:39:07;94354.97;;;10.02;46.87
11692;BME280;33659;42.672;23.354;2023-02-22T05:41:34;94357.38;;;10.07;46.32
11692;BME280;33659;42.672;23.354;2023-02-22T05:44:01;94359.09;;;10.03;46.52
11692;BME280;33659;42.672;23.354;2023-02-22T05:46:28;94359.31;;;10.10;46.85
11692;BME280;33659;42.672;23.354;2023-02-22T05:48:55;94361.09;;;10.18;46.40
11692;BME280;33659;42.672;23.354;2023-02-22T05:51:23;94360.88;;;10.23;45.85
11692;BME280;33659;42.672;23.354;2023-02-22T05:53:50;94359.50;;;10.26;45.77
11692;BME280;33659;42.672;23.354;2023-02-22T05:56:20;94365.09;;;10.16;46.37
11692;BME280;33659;42.672;23.354;2023-02-22T05:58:47;94370.59;;;9.90;46.80
11692;BME280;33659;42.672;23.354;2023-02-22T06:01:13;94372.81;;;9.67;47.11
11692;BME280;33659;42.672;23.354;2023-02-22T06:03:40;94368.41;;;9.59;47.70
11692;BME280;33659;42.672;23.354;2023-02-22T06:06:07;94382.59;;;9.49;47.83
11692;BME280;33659;42.672;23.354;2023-02-22T06:08:36;94378.41;;;9.36;47.92
11692;BME280;33659;42.672;23.354;2023-02-22T06:11:02;94380.38;;;9.18;48.52
11692;BME280;33659;42.672;23.354;2023-02-22T06:13:29;94376.03;;;9.01;47.96
11692;BME280;33659;42.672;23.354;2023-02-22T06:15:56;94378.44;;;8.85;48.14
11692;BME280;33659;42.672;23.354;2023-02-22T06:18:23;94372.56;;;8.67;48.80
11692;BME280;33659;42.672;23.354;2023-02-22T06:20:51;94377.88;;;8.50;49.04
11692;BME280;33659;42.672;23.354;2023-02-22T06:23:18;94372.81;;;8.45;49.59
11692;BME280;33659;42.672;23.354;2023-02-22T06:25:46;94372.19;;;8.48;49.58
11692;BME280;33659;42.672;23.354;2023-02-22T06:28:13;94373.63;;;8.66;49.51
11692;BME280;33659;42.672;23.354;2023-02-22T06:30:40;94372.03;;;8.83;49.68
11692;BME280;33659;42.672;23.354;2023-02-22T06:33:07;94372.50;;;9.06;49.16
11692;BME280;33659;42.672;23.354;2023-02-22T06:35:34;94369.69;;;9.32;48.13
11692;BME280;33659;42.672;23.354;2023-02-22T06:38:01;94370.44;;;9.53;47.58
11692;BME280;33659;42.672;23.354;2023-02-22T06:40:28;94376.41;;;9.74;47.39
11692;BME280;33659;42.672;23.354;2023-02-22T06:42:56;94375.94;;;9.93;46.61
11692;BME280;33659;42.672;23.354;2023-02-22T06:45:24;94383.69;;;10.14;46.24
11692;BME280;33659;42.672;23.354;2023-02-22T06:47:51;94378.75;;;10.34;45.92
11692;BME280;33659;42.672;23.354;2023-02-22T06:50:20;94374.94;;;10.55;45.50
11692;BME280;33659;42.672;23.354;2023-02-22T06:52:47;94377.34;;;10.73;45.42
11692;BME280;33659;42.672;23.354;2023-02-22T06:55:17;94372.66;;;10.91;45.04
11692;BME280;33659;42.672;23.354;2023-02-22T06:57:44;94374.94;;;11.04;44.45
11692;BME280;33659;42.672;23.354;2023-02-22T07:00:14;94381.78;;;11.21;44.31
11692;BME280;33659;42.672;23.354;2023-02-22T07:02:41;94368.44;;;11.26;44.18
11692;BME280;33659;42.672;23.354;2023-02-22T07:05:09;94376.41;;;11.30;43.90
11692;BME280;33659;42.672;23.354;2023-02-22T07:07:37;94372.81;;;11.34;44.00
11692;BME280;33659;42.672;23.354;2023-02-22T07:10:05;94370.81;;;11.44;43.02
11692;BME280;33659;42.672;23.354;2023-02-22T07:12:32;94375.81;;;11.49;42.96
11692;BME280;33659;42.672;23.354;2023-02-22T07:14:59;94383.84;;;11.56;42.52
11692;BME280;33659;42.672;23.354;2023-02-22T07:17:27;94377.72;;;11.64;42.78
11692;BME280;33659;42.672;23.354;2023-02-22T07:19:54;94380.84;;;11.70;42.60
11692;BME280;33659;42.672;23.354;2023-02-22T07:22:20;94385.84;;;11.75;42.38
11692;BME280;33659;42.672;23.354;2023-02-22T07:24:47;94384.63;;;11.84;42.54
11692;BME280;33659;42.672;23.354;2023-02-22T07:27:14;94373.94;;;11.89;41.95
11692;BME280;33659;42.672;23.354;2023-02-22T07:29:41;94383.28;;;11.90;41.99
11692;BME280;33659;42.672;23.354;2023-02-22T07:32:08;94382.13;;;11.88;42.02
11692;BME280;33659;42.672;23.354;2023-02-22T07:34:36;94383.56;;;11.85;42.34
11692;BME280;33659;42.672;23.354;2023-02-22T07:37:03;94373.94;;;11.89;42.09
11692;BME280;33659;42.672;23.354;2023-02-22T07:39:29;94373.94;;;11.77;42.21
11692;BME280;33659;42.672;23.354;2023-02-22T07:41:56;94366.16;;;11.65;42.46
11692;BME280;33659;42.672;23.354;2023-02-22T07:44:23;94365.84;;;11.66;42.81
11692;BME280;33659;42.672;23.354;2023-02-22T07:46:50;94361.00;;;11.53;43.93
11692;BME280;33659;42.672;23.354;2023-02-22T07:49:16;94366.88;;;11.50;44.86
11692;BME280;33659;42.672;23.354;2023-02-22T07:51:44;94378.19;;;11.54;44.35
11692;BME280;33659;42.672;23.354;2023-02-22T07:54:11;94375.63;;;11.70;43.74
11692;BME280;33659;42.672;23.354;2023-02-22T07:56:45;94364.81;;;11.83;44.44
11692;BME280;33659;42.672;23.354;2023-02-22T07:59:12;94365.25;;;11.85;43.87
11692;BME280;33659;42.672;23.354;2023-02-22T08:01:38;94364.97;;;11.90;44.56
11692;BME280;33659;42.672;23.354;2023-02-22T08:04:05;94364.84;;;11.99;43.23
11692;BME280;33659;42.672;23.354;2023-02-22T08:06:32;94364.44;;;12.13;43.47
11692;BME280;33659;42.672;23.354;2023-02-22T08:09:00;94359.38;;;12.36;42.88
11692;BME280;33659;42.672;23.354;2023-02-22T08:11:26;94362.75;;;12.52;42.52
11692;BME280;33659;42.672;23.354;2023-02-22T08:13:53;94363.09;;;12.66;42.75
11692;BME280;33659;42.672;23.354;2023-02-22T08:16:20;94361.88;;;12.80;42.83
11692;BME280;33659;42.672;23.354;2023-02-22T08:18:46;94366.75;;;12.97;42.58
11692;BME280;33659;42.672;23.354;2023-02-22T08:21:13;94366.16;;;13.04;41.70
11692;BME280;33659;42.672;23.354;2023-02-22T08:23:41;94356.94;;;13.10;41.74
11692;BME280;33659;42.672;23.354;2023-02-22T08:26:10;94356.72;;;13.18;41.55
11692;BME280;33659;42.672;23.354;2023-02-22T08:28:39;94361.13;;;13.30;41.34
11692;BME280;33659;42.672;23.354;2023-02-22T08:31:06;94359.47;;;13.41;41.00
11692;BME280;33659;42.672;23.354;2023-02-22T08:33:33;94359.66;;;13.52;41.42
11692;BME280;33659;42.672;23.354;2023-02-22T08:36:00;94363.53;;;13.58;40.65
11692;BME280;33659;42.672;23.354;2023-02-22T08:38:29;94358.78;;;13.64;40.99
11692;BME280;33659;42.672;23.354;2023-02-22T08:40:56;94355.19;;;13.72;40.96
11692;BME280;33659;42.672;23.354;2023-02-22T08:43:24;94349.09;;;13.87;40.68
11692;BME280;33659;42.672;23.354;2023-02-22T08:45:52;94341.75;;;13.96;40.60
11692;BME280;33659;42.672;23.354;2023-02-22T08:48:20;94338.59;;;13.87;40.40
11692;BME280;33659;42.672;23.354;2023-02-22T08:50:46;94343.63;;;13.96;40.99
11692;BME280;33659;42.672;23.354;2023-02-22T08:53:15;94344.09;;;14.01;40.99
11692;BME280;33659;42.672;23.354;2023-02-22T08:55:42;94343.94;;;14.14;41.16
11692;BME280;33659;42.672;23.354;2023-02-22T08:58:09;94340.09;;;14.30;40.42
11692;BME280;33659;42.672;23.354;2023-02-22T09:00:38;94343.63;;;14.42;39.89
11692;BME280;33659;42.672;23.354;2023-02-22T09:03:07;94337.34;;;14.46;40.07
11692;BME280;33659;42.672;23.354;2023-02-22T09:05:34;94335.06;;;14.45;40.70
11692;BME280;33659;42.672;23.354;2023-02-22T09:08:02;94331.50;;;14.56;39.94
11692;BME280;33659;42.672;23.354;2023-02-22T09:10:30;94335.41;;;14.66;40.28
11692;BME280;33659;42.672;23.354;2023-02-22T09:12:57;94326.84;;;14.73;39.85
11692;BME280;33659;42.672;23.354;2023-02-22T09:15:25;94332.50;;;14.75;40.54
11692;BME280;33659;42.672;23.354;2023-02-22T09:17:53;94328.81;;;14.79;42.08
11692;BME280;33659;42.672;23.354;2023-02-22T09:20:21;94296.34;;;14.65;39.80
11692;BME280;33659;42.672;23.354;2023-02-22T09:22:49;94324.03;;;14.85;40.86
11692;BME280;33659;42.672;23.354;2023-02-22T09:25:16;94321.78;;;14.87;40.78
11692;BME280;33659;42.672;23.354;2023-02-22T09:27:46;94333.59;;;14.97;40.22
11692;BME280;33659;42.672;23.354;2023-02-22T09:30:16;94323.09;;;15.00;40.53
11692;BME280;33659;42.672;23.354;2023-02-22T09:32:43;94320.34;;;15.20;40.46
11692;BME280;33659;42.672;23.354;2023-02-22T09:35:11;94325.03;;;15.33;39.66
11692;BME280;33659;42.672;23.354;2023-02-22T09:37:38;94313.50;;;15.45;41.88
11692;BME280;33659;42.672;23.354;2023-02-22T09:40:13;94307.56;;;15.52;38.99
11692;BME280;33659;42.672;23.354;2023-02-22T09:42:47;94305.84;;;15.63;38.49
11692;BME280;33659;42.672;23.354;2023-02-22T09:45:22;94319.56;;;15.79;39.14
11692;BME280;33659;42.672;23.354;2023-02-22T09:47:53;94311.28;;;15.81;37.80
11692;BME280;33659;42.672;23.354;2023-02-22T09:50:25;94308.84;;;16.02;38.09
11692;BME280;33659;42.672;23.354;2023-02-22T09:52:58;94308.97;;;16.16;38.13
11692;BME280;33659;42.672;23.354;2023-02-22T09:55:32;94311.00;;;16.30;38.97
11692;BME280;33659;42.672;23.354;2023-02-22T09:58:05;94311.13;;;16.48;37.61
11692;BME280;33659;42.672;23.354;2023-02-22T10:00:36;94304.50;;;16.68;36.06
11692;BME280;33659;42.672;23.354;2023-02-22T10:03:16;94303.06;;;16.78;35.87
11692;BME280;33659;42.672;23.354;2023-02-22T10:05:53;94301.56;;;16.81;35.58
11692;BME280;33659;42.672;23.354;2023-02-22T10:08:26;94290.72;;;16.93;35.57
11692;BME280;33659;42.672;23.354;2023-02-22T10:11:15;94294.97;;;17.12;34.88
11692;BME280;33659;42.672;23.354;2023-02-22T10:13:52;94259.47;;;16.98;35.37
11692;BME280;33659;42.672;23.354;2023-02-22T10:16:26;94288.94;;;17.08;35.64
11692;BME280;33659;42.672;23.354;2023-02-22T10:19:07;94279.16;;;17.15;34.79
11692;BME280;33659;42.672;23.354;2023-02-22T10:21:52;94262.63;;;17.32;34.80
11692;BME280;33659;42.672;23.354;2023-02-22T10:24:34;94270.94;;;17.42;35.58
11692;BME280;33659;42.672;23.354;2023-02-22T10:27:05;94262.34;;;17.63;34.55
11692;BME280;33659;42.672;23.354;2023-02-22T10:29:37;94261.59;;;17.69;34.33
11692;BME280;33659;42.672;23.354;2023-02-22T10:32:07;94258.25;;;17.94;35.38
11692;BME280;33659;42.672;23.354;2023-02-22T10:34:39;94242.78;;;18.03;33.87
11692;BME280;33659;42.672;23.354;2023-02-22T10:37:20;94249.97;;;18.13;33.51
11692;BME280;33659;42.672;23.354;2023-02-22T10:39:49;94243.19;;;18.23;32.49
11692;BME280;33659;42.672;23.354;2023-02-22T10:42:21;94232.97;;;18.35;33.42
11692;BME280;33659;42.672;23.354;2023-02-22T10:44:50;94227.63;;;18.64;33.40
11692;BME280;33659;42.672;23.354;2023-02-22T10:47:17;94227.97;;;18.91;32.19
11692;BME280;33659;42.672;23.354;2023-02-22T10:49:47;94221.13;;;19.01;33.84
11692;BME280;33659;42.672;23.354;2023-02-22T10:52:21;94226.38;;;19.15;32.68
11692;BME280;33659;42.672;23.354;2023-02-22T10:54:50;94223.25;;;19.31;31.99
11692;BME280;33659;42.672;23.354;2023-02-22T10:57:20;94213.31;;;19.53;31.72
11692;BME280;33659;42.672;23.354;2023-02-22T10:59:48;94215.16;;;19.63;31.92
11692;BME280;33659;42.672;23.354;2023-02-22T11:02:18;94208.66;;;19.74;32.75
11692;BME280;33659;42.672;23.354;2023-02-22T11:04:47;94204.75;;;19.90;31.60
11692;BME280;33659;42.672;23.354;2023-02-22T11:07:22;94203.06;;;20.14;31.38
11692;BME280;33659;42.672;23.354;2023-02-22T11:09:51;94203.13;;;20.07;32.30
11692;BME280;33659;42.672;23.354;2023-02-22T11:12:20;94198.41;;;19.84;31.74
11692;BME280;33659;42.672;23.354;2023-02-22T11:14:50;94199.44;;;19.93;31.34
11692;BME280;33659;42.672;23.354;2023-02-22T11:17:23;94201.69;;;19.98;31.99
11692;BME280;33659;42.672;23.354;2023-02-22T11:19:53;94188.00;;;20.04;30.37
11692;BME280;33659;42.672;23.354;2023-02-22T11:22:24;94191.03;;;20.06;30.96
11692;BME280;33659;42.672;23.354;2023-02-22T11:24:56;94188.44;;;19.98;30.38
11692;BME280;33659;42.672;23.354;2023-02-22T11:27:28;94168.84;;;19.85;32.14
11692;BME280;33659;42.672;23.354;2023-02-22T11:30:07;94178.91;;;20.05;30.47
11692;BME280;33659;42.672;23.354;2023-02-22T11:32:42;94176.94;;;20.16;30.86
11692;BME280;33659;42.672;23.354;2023-02-22T11:35:19;94167.09;;;20.13;31.54
11692;BME280;33659;42.672;23.354;2023-02-22T11:37:47;94163.41;;;20.41;30.54
11692;BME280;33659;42.672;23.354;2023-02-22T11:40:15;94174.53;;;20.66;30.03
11692;BME280;33659;42.672;23.354;2023-02-22T11:42:47;94152.06;;;20.78;29.14
11692;BME280;33659;42.672;23.354;2023-02-22T11:45:15;94164.28;;;21.02;28.97
11692;BME280;33659;42.672;23.354;2023-02-22T11:47:50;94161.00;;;21.22;27.92
11692;BME280;33659;42.672;23.354;2023-02-22T11:50:26;94155.59;;;21.29;28.49
11692;BME280;33659;42.672;23.354;2023-02-22T11:55:50;94163.53;;;21.59;27.26
11692;BME280;33659;42.672;23.354;2023-02-22T11:58:34;94159.22;;;21.42;27.41
11692;BME280;33659;42.672;23.354;2023-02-22T12:01:07;94150.09;;;21.43;27.67
11692;BME280;33659;42.672;23.354;2023-02-22T12:04:04;94150.34;;;21.52;28.01
11692;BME280;33659;42.672;23.354;2023-02-22T12:06:44;94131.53;;;21.67;27.05
11692;BME280;33659;42.672;23.354;2023-02-22T12:09:21;94138.53;;;21.80;26.87
11692;BME280;33659;42.672;23.354;2023-02-22T12:12:00;94133.28;;;21.50;27.26
11692;BME280;33659;42.672;23.354;2023-02-22T12:14:33;94138.88;;;21.32;27.43
11692;BME280;33659;42.672;23.354;2023-02-22T12:17:17;94131.03;;;21.48;27.86
11692;BME280;33659;42.672;23.354;2023-02-22T12:19:49;94134.53;;;21.69;26.75
11692;BME280;33659;42.672;23.354;2023-02-22T12:22:19;94124.63;;;21.96;26.46
11692;BME280;33659;42.672;23.354;2023-02-22T12:24:54;94098.34;;;22.22;26.23
11692;BME280;33659;42.672;23.354;2023-02-22T12:27:27;94117.94;;;22.51;25.56
11692;BME280;33659;42.672;23.354;2023-02-22T12:29:58;94107.91;;;22.59;25.61
11692;BME280;33659;42.672;23.354;2023-02-22T12:32:32;94111.53;;;22.68;25.39
11692;BME280;33659;42.672;23.354;2023-02-22T12:35:09;94116.38;;;22.74;25.06
11692;BME280;33659;42.672;23.354;2023-02-22T12:37:47;94114.94;;;22.49;25.23
11692;BME280;33659;42.672;23.354;2023-02-22T12:40:20;94099.25;;;22.35;25.26
11692;BME280;33659;42.672;23.354;2023-02-22T12:42:54;94112.00;;;22.43;25.40
11692;BME280;33659;42.672;23.354;2023-02-22T12:45:28;94122.72;;;22.40;25.58
11692;BME280;33659;42.672;23.354;2023-02-22T12:48:06;94104.44;;;22.42;25.59
11692;BME280;33659;42.672;23.354;2023-02-22T12:50:35;94104.31;;;22.49;25.72
11692;BME280;33659;42.672;23.354;2023-02-22T12:53:08;94090.25;;;22.49;25.35
11692;BME280;33659;42.672;23.354;2023-02-22T12:55:42;94100.91;;;21.82;25.90
11692;BME280;33659;42.672;23.354;2023-02-22T12:58:20;94119.41;;;21.66;25.88
11692;BME280;33659;42.672;23.354;2023-02-22T13:00:55;94104.09;;;21.73;26.04
11692;BME280;33659;42.672;23.354;2023-02-22T13:03:30;94091.06;;;21.55;26.03
11692;BME280;33659;42.672;23.354;2023-02-22T13:06:07;94102.03;;;21.57;25.77
11692;BME280;33659;42.672;23.354;2023-02-22T13:08:42;94084.50;;;21.40;26.08